Reedley, California
Current Conditions -  °F | °C
As of 12:55 PM on Sunday 23 Nov 2014 (Local Time) from KVIS Reporting Station
Broken Clouds Broken Clouds  
Wind Chill: 57°   Ceiling: 2700
Heat Index: 57°   Visibility: 10mi
Dew Point: 46°   Wind: 6mph
Humidity: 67%   Direction: 110°ESE
Pressure: 30.29"   Gusts: NA
Location:  36.59°N, 119.45°W
Report Text: KVIS 232055Z 11005KT 10SM FEW022 BKN027 14/08 A3029 RMK AO1 57014
Loading
Personal Weather Stations






























Interactive Weather Map New forecast layout! Learn more

10-Day Weather Forecast

Advertisements
Track Severe Weather on mobile